Date,TemperatureHighF,TemperatureAvgF,TemperatureLowF,DewpointHighF,DewpointAvgF,DewpointLowF,HumidityHigh,HumidityAvg,HumidityLow,PressureMaxIn,PressureMinIn,WindSpeedMaxMPH,WindSpeedAvgMPH,GustSpeedMaxMPH,PrecipitationSumIn
2013-1-1,56,41,27,32,24,19,86,55,27,30.03,29.83,6,1,11,0.00
2013-1-2,61,43,0,28,24,21,83,51,25,29.94,29.71,6,1,12,0.00
2013-1-3,62,46,30,28,25,21,77,48,25,29.94,29.80,11,3,20,0.00
2013-1-4,59,47,36,27,25,21,58,42,28,30.06,29.88,11,4,18,0.00
2013-1-5,63,45,29,34,23,18,80,46,18,30.12,29.94,3,0,5,0.00
2013-1-6,68,48,34,25,20,12,55,36,15,30.00,29.68,9,2,15,0.00
2013-1-7,61,45,30,28,22,18,66,42,25,29.74,29.59,5,2,10,0.00
2013-1-8,63,46,30,30,22,18,69,41,24,29.91,29.68,4,1,6,0.00
2013-1-9,71,51,32,30,17,9,55,31,12,30.00,29.77,11,2,19,0.00
2013-1-10,68,50,0,34,20,14,44,32,17,29.85,29.56,8,2,18,0.00
2013-1-11,56,42,0,34,21,7,82,46,24,29.88,29.65,9,2,15,0.00
2013-1-12,53,36,23,19,10,3,55,36,19,29.91,29.77,6,1,11,0.00
2013-1-13,54,35,0,19,8,1,51,35,18,29.91,29.71,6,1,10,0.00
2013-1-14,52,33,20,16,4,-6,50,31,18,30.00,29.83,7,2,13,0.00
2013-1-15,50,34,0,12,1,-4,45,26,16,30.12,29.97,5,1,10,0.00
2013-1-16,60,40,22,12,6,-4,40,25,14,30.12,29.91,4,1,7,0.00
2013-1-17,70,52,33,19,13,9,40,23,12,30.00,29.83,10,3,24,0.00
2013-1-18,75,50,0,27,15,10,39,25,11,29.97,29.80,6,1,10,0.00
2013-1-19,75,54,34,27,17,12,41,25,11,30.03,29.83,4,1,8,0.00
2013-1-20,77,55,0,34,22,7,46,28,15,29.97,29.71,4,1,6,0.00
2013-1-21,79,58,0,34,26,19,51,31,18,29.91,29.71,4,1,8,0.00
2013-1-22,82,60,40,37,28,23,53,31,15,29.97,29.77,4,1,9,0.00
2013-1-23,86,62,43,36,28,23,47,30,14,30.00,29.77,5,1,10,0.00
2013-1-24,66,58,0,48,39,28,74,49,34,30.00,29.88,2,0,6,0.05
2013-1-25,80,64,49,48,44,39,84,53,25,29.97,29.71,2,0,6,0.00
2013-1-26,70,61,0,59,51,43,95,70,37,29.80,29.65,6,1,17,0.79
2013-1-27,70,58,48,54,46,39,96,67,35,29.83,29.68,4,1,11,0.00
2013-1-28,65,52,43,48,37,25,78,56,35,29.80,29.71,8,3,17,0.04
2013-1-29,56,46,37,34,24,18,74,45,25,29.97,29.80,8,4,16,0.00
2013-1-30,62,46,30,30,22,16,77,43,19,30.09,29.94,4,1,8,0.00
2013-1-31,65,46,32,30,25,18,70,46,24,30.03,29.85,4,1,8,0.00
2013-2-1,74,52,33,34,28,23,74,44,16,30.00,29.83,3,1,6,0.00
2013-2-2,78,56,36,34,28,21,66,38,13,30.06,29.83,3,1,6,0.00
2013-2-3,76,59,0,37,32,28,52,38,21,29.91,29.71,3,1,7,0.00
2013-2-4,75,58,0,39,35,32,66,43,23,29.83,29.68,4,1,8,0.00
2013-2-5,79,63,0,39,36,34,74,37,22,29.83,29.62,10,2,10,0.00
2013-2-6,76,58,44,41,35,30,73,44,23,29.83,29.65,12,2,12,0.00
2013-2-7,75,57,41,37,30,21,70,39,16,29.91,29.71,6,1,6,0.00
2013-2-8,72,56,42,32,24,16,51,32,14,29.74,29.53,17,2,17,0.00
2013-2-9,59,48,37,34,25,18,81,42,25,29.80,29.59,13,2,13,0.04
2013-2-10,63,46,31,28,22,16,72,41,24,29.83,29.65,8,1,8,0.00
2013-2-11,57,40,0,36,27,16,91,59,29,29.91,29.74,11,1,11,0.13
2013-2-12,58,42,0,37,28,21,94,62,31,30.03,29.91,8,1,8,0.04
2013-2-13,66,44,29,30,24,19,84,49,18,29.97,29.80,6,1,6,0.00
2013-2-14,69,51,32,30,25,21,73,41,17,29.94,29.74,8,1,8,0.00
2013-2-15,76,54,38,34,26,19,67,37,13,30.00,29.85,7,1,7,0.00
2013-2-16,79,59,38,25,17,9,50,23,10,30.06,29.71,19,3,19,0.00
2013-2-17,80,57,38,27,16,9,38,22,10,29.80,29.59,15,2,15,0.00
2013-2-18,77,55,0,28,17,10,43,25,10,29.88,29.65,8,1,8,0.00
2013-2-19,77,58,41,28,19,10,39,24,10,29.74,29.44,17,3,17,0.00
2013-2-20,53,44,35,37,32,27,94,65,36,29.71,29.47,18,3,18,0.54
2013-2-21,61,45,0,37,32,27,95,62,34,29.80,29.68,9,1,9,0.08
2013-2-22,63,48,36,39,30,21,87,52,29,29.91,29.71,13,1,13,0.00
2013-2-23,71,50,32,32,27,19,81,45,17,29.91,29.59,8,1,8,0.00
2013-2-24,57,46,36,30,18,5,69,35,15,29.85,29.59,20,4,20,0.00
2013-2-25,66,47,29,23,16,10,53,31,15,29.97,29.77,9,1,9,0.00
2013-2-26,68,48,30,27,17,10,57,33,12,29.85,29.68,12,1,12,0.00
2013-2-27,68,46,0,25,14,5,53,31,12,29.97,29.83,10,1,10,0.00
2013-2-28,73,53,31,23,12,5,47,23,11,30.06,29.88,12,2,12,0.00
2013-3-1,79,53,0,25,17,10,47,28,10,30.12,0.00,8,1,8,0.00
2013-3-2,89,62,0,32,22,14,47,25,8,30.09,29.80,7,1,7,0.00
2013-3-3,89,65,42,32,21,14,42,22,8,29.88,29.62,11,1,11,0.00
2013-3-4,77,65,51,30,25,19,37,22,13,29.85,29.65,17,3,17,0.00
2013-3-5,87,63,44,36,26,18,49,28,10,29.91,29.68,9,1,9,0.00
2013-3-6,88,68,51,36,27,18,43,24,11,29.80,29.56,10,1,10,0.00
2013-3-7,86,65,45,34,24,14,47,24,8,29.77,29.59,14,2,15,0.00
2013-3-8,74,60,0,48,34,25,63,37,24,29.74,29.53,22,4,22,0.13
2013-3-9,59,52,43,39,33,30,74,48,35,29.85,29.74,12,2,12,0.13
2013-3-10,70,57,44,37,33,28,71,42,23,29.91,29.77,13,3,13,0.00
2013-3-11,80,59,39,36,27,19,66,35,12,29.97,29.71,9,1,9,0.00
2013-3-12,90,64,41,36,28,21,51,29,10,29.91,29.68,8,1,8,0.00
2013-3-13,97,70,46,37,27,16,53,25,6,29.91,29.68,12,1,12,0.00
2013-3-14,99,74,49,36,23,14,39,20,5,29.91,29.65,8,1,8,0.04
2013-3-15,88,63,0,30,24,18,31,24,8,29.85,27.14,14,2,14,0.00
2013-3-16,88,77,0,27,19,14,25,12,8,29.68,0.00,18,4,18,0.00
2013-3-17,83,71,57,25,18,10,24,14,9,29.71,29.53,17,3,17,0.00
2013-3-18,82,69,56,32,23,16,28,18,9,29.80,29.59,10,1,10,0.04
2013-3-19,80,69,59,32,25,21,27,20,12,29.80,29.65,11,2,11,0.00
2013-3-20,82,71,58,32,25,21,27,19,12,29.83,29.59,10,1,10,0.00
2013-3-21,77,67,0,34,28,23,27,22,15,29.62,29.47,8,1,9,0.00
2013-3-22,81,71,61,34,28,19,31,20,12,29.59,29.41,17,3,17,0.00
2013-3-23,76,66,55,32,22,10,37,20,10,29.74,29.56,17,2,17,0.00
2013-3-24,76,63,0,18,13,7,21,14,10,29.83,29.59,15,2,15,0.00
2013-3-25,80,67,50,19,13,7,16,13,10,29.83,29.59,10,1,10,0.00
2013-3-26,87,72,56,19,16,10,17,12,8,29.74,29.53,18,2,18,0.00
2013-3-27,85,73,58,23,17,12,17,12,8,29.74,29.62,16,2,16,0.00
2013-3-28,85,75,59,28,19,3,19,12,8,29.83,29.65,12,2,12,0.00
2013-3-29,86,74,61,32,20,14,24,14,8,29.88,29.68,13,1,31,0.00
2013-3-30,84,72,62,23,17,10,16,12,9,29.83,29.65,12,2,12,0.00
2013-3-31,85,72,58,28,22,14,25,16,9,29.83,29.62,22,2,22,0.00
2013-4-1,83,72,59,36,24,14,26,17,11,29.80,29.59,13,3,13,0.00
2013-4-2,78,68,56,23,18,12,22,15,10,29.74,29.56,14,2,14,0.00
2013-4-3,82,69,0,25,19,14,23,15,9,29.80,29.65,12,2,12,0.00
2013-4-4,89,74,58,25,18,14,19,13,8,29.88,29.62,18,2,18,0.00
2013-4-5,87,76,64,27,21,12,16,13,11,29.74,29.59,14,3,14,0.00
2013-4-6,86,72,0,36,26,18,26,17,11,29.77,0.00,17,2,17,0.00
2013-4-7,86,75,62,34,28,18,33,19,8,29.68,29.41,12,2,12,0.00
2013-4-8,83,72,52,46,30,19,75,23,12,29.53,29.12,23,5,23,0.09
2013-4-9,67,60,53,46,31,19,75,37,17,29.68,29.41,15,4,15,0.04
2013-4-10,69,61,51,30,26,19,40,27,17,29.77,29.62,14,3,14,0.00
2013-4-11,79,66,50,30,25,19,38,23,12,29.80,29.47,9,1,9,0.00
2013-4-12,81,68,56,27,23,19,26,19,12,29.62,29.47,9,1,9,0.00
2013-4-13,85,72,53,27,21,16,30,17,8,29.68,29.44,15,3,15,0.04
2013-4-14,85,74,58,36,26,21,30,18,11,29.59,29.41,15,3,15,0.04
2013-4-15,66,53,0,21,21,19,18,14,17,29.56,27.61,0,0,0,0.04
2013-10-17,81,71,58,23,18,14,19,13,10,35.44,29.80,8,1,8,0.00
2013-10-18,80,65,50,30,21,16,28,19,12,30.00,29.83,9,1,9,0.00
2013-10-19,84,67,51,30,19,10,26,17,8,30.06,29.83,10,1,10,0.00
2013-10-20,83,66,51,43,18,10,44,16,9,30.00,29.77,15,1,15,0.00
2013-10-21,84,67,52,25,17,10,23,16,9,30.00,29.83,10,1,10,0.00
2013-10-22,87,70,51,25,16,10,20,13,8,30.03,29.83,18,2,18,0.00
2013-10-23,90,75,57,30,21,12,24,14,8,29.94,29.77,16,2,16,0.00
2013-10-24,89,74,58,30,20,14,22,14,8,29.97,29.80,14,2,14,0.00
2013-10-25,85,71,57,32,23,14,26,17,11,30.06,29.88,11,1,11,0.00
2013-10-26,85,69,53,32,24,19,28,19,11,30.12,29.88,8,1,8,0.00
2013-10-27,88,71,57,27,22,16,26,17,8,30.00,29.71,13,2,13,0.00
2013-10-28,82,70,55,32,26,16,31,20,12,29.94,29.77,17,3,19,0.00
2013-10-29,81,71,61,32,29,25,31,22,14,29.91,29.77,20,5,20,0.00
2013-10-30,70,61,52,36,29,21,39,30,23,30.03,29.91,13,2,13,0.00
2013-10-31,73,60,46,30,22,5,38,25,11,30.15,29.91,9,1,9,0.00
2013-11-1,77,61,47,27,20,16,28,20,13,30.18,29.94,6,1,6,0.00
2013-11-2,84,68,49,48,20,16,54,19,8,30.06,29.83,19,3,19,0.00
2013-11-3,80,69,60,52,43,32,67,41,22,29.94,29.68,11,1,11,0.00
2013-11-4,76,64,56,46,40,37,51,42,26,29.88,29.68,11,2,12,0.00
2013-11-5,71,64,57,43,38,34,52,39,26,30.12,29.83,10,2,10,0.00
2013-11-6,74,58,50,34,28,16,49,33,13,30.24,30.06,6,0,6,0.00
2013-11-7,79,64,0,25,19,12,25,17,12,30.24,29.94,25,3,25,0.00
2013-11-8,81,66,53,36,28,19,35,24,17,30.12,29.88,6,1,6,0.00
2013-11-9,80,68,55,36,31,27,35,25,20,30.12,29.91,9,1,9,0.00
2013-11-10,84,69,54,37,32,27,38,26,16,30.15,29.91,11,1,11,0.00
2013-11-11,86,69,0,37,31,27,35,25,16,30.12,29.91,10,1,10,0.00
2013-11-12,86,71,56,39,34,28,37,27,19,30.18,30.00,26,4,26,0.00
2013-11-13,79,71,65,39,37,34,35,29,23,30.15,29.91,27,6,27,0.00
2013-11-14,80,68,55,43,35,28,47,31,21,30.06,29.80,6,1,6,0.00
2013-11-15,76,67,56,48,40,30,50,37,26,29.85,29.62,15,3,18,0.00
2013-11-16,76,68,61,48,40,30,53,38,18,29.91,29.71,19,4,19,0.00
2013-11-17,76,66,56,43,40,37,51,40,25,30.06,29.88,15,1,15,0.00
2013-11-18,77,64,0,45,40,36,50,40,26,30.12,0.00,11,1,11,0.00
2013-11-19,78,65,52,39,35,32,45,33,21,30.03,29.80,8,1,8,0.00
2013-11-20,74,65,0,37,33,27,38,30,23,29.94,29.77,12,2,12,0.00
2013-11-21,73,65,54,54,38,30,77,38,27,29.97,29.83,13,2,13,0.00
2013-11-22,63,56,0,55,50,43,85,75,67,29.94,29.80,14,2,14,0.00
2013-11-23,56,51,49,48,45,41,94,78,63,30.06,29.91,10,2,11,0.00
2013-11-24,61,52,47,43,39,34,74,59,42,30.15,30.03,10,2,10,0.00
2013-11-25,60,52,42,37,35,34,69,55,37,30.21,30.09,8,1,8,0.00
2013-11-26,59,56,0,37,24,21,29,26,25,30.18,0.00,24,9,24,0.00
2013-11-27,64,58,54,27,22,21,27,25,23,30.18,29.97,27,10,27,0.00
2013-11-28,71,59,50,34,27,19,45,29,23,30.12,29.91,16,4,16,0.00
2013-11-29,73,59,47,39,35,32,58,42,23,30.21,30.00,9,1,9,0.00
2013-11-30,69,59,50,43,39,36,64,49,33,30.18,30.03,6,0,6,0.00
2013-12-1,70,60,53,46,42,37,69,51,33,30.24,30.09,6,0,6,0.00
2013-12-2,70,57,46,43,37,32,71,49,27,30.18,29.91,8,0,8,0.00
2013-12-3,69,54,46,37,34,32,57,46,27,29.97,29.68,6,0,6,0.00
2013-12-4,68,60,47,43,37,30,82,44,25,29.94,29.74,20,5,20,0.00
2013-12-5,51,48,42,45,33,21,87,58,38,30.12,29.88,9,1,9,0.00
2013-12-6,52,44,36,30,24,19,67,46,29,30.21,30.03,6,1,6,0.00
2013-12-7,58,46,34,30,24,19,64,43,26,30.12,29.91,9,1,9,0.00
2013-12-8,58,50,42,36,32,23,60,49,38,30.12,29.97,8,1,8,0.00
2013-12-9,50,45,0,28,21,16,48,39,27,30.24,30.03,7,0,7,0.00
2013-12-10,61,51,0,25,22,18,54,32,21,30.24,30.03,10,1,10,0.00
2013-12-11,70,51,39,36,27,21,54,41,25,30.18,30.03,8,0,8,0.00
2013-12-12,70,61,52,37,29,25,38,30,26,30.18,29.97,20,4,20,0.00
2013-12-13,63,51,0,30,27,25,54,40,27,30.15,30.03,6,1,6,0.00
2013-12-14,63,52,0,30,26,23,57,35,24,30.27,0.00,8,1,8,0.00
2013-12-15,67,52,38,28,24,21,52,35,20,30.33,30.12,9,1,9,0.00
2013-12-16,77,56,40,32,25,19,49,32,13,30.27,30.03,10,1,10,0.00
2013-12-17,80,59,44,34,27,21,45,32,12,30.24,30.00,5,0,5,0.00
2013-12-18,76,60,49,32,28,25,41,30,15,30.09,29.83,8,0,8,0.00
2013-12-19,65,56,48,28,25,23,37,30,24,29.88,29.80,15,2,15,0.00
2013-12-20,56,50,0,41,36,27,76,57,43,29.83,0.00,15,3,15,0.00
2013-12-21,56,50,46,39,35,30,69,55,39,30.09,29.83,14,2,14,0.00
2013-12-22,59,48,38,39,33,28,75,55,35,30.27,30.03,8,0,8,0.00
2013-12-23,63,49,37,34,30,25,69,49,26,30.33,30.15,7,1,7,0.00
2013-12-24,67,53,0,30,26,21,49,34,23,30.24,30.03,14,2,14,0.00
2013-12-25,66,51,37,30,26,21,60,40,24,30.24,30.09,6,0,6,0.00
2013-12-26,65,56,49,27,22,18,31,26,20,30.24,30.03,19,4,19,0.00
2013-12-27,67,56,44,27,20,16,38,25,15,30.21,30.06,13,2,13,0.00
2013-12-28,65,54,40,28,23,16,40,30,23,30.15,29.91,10,1,10,0.00
2013-12-29,64,54,43,30,27,23,50,36,24,30.12,29.91,10,1,10,0.00
2013-12-30,66,51,39,30,25,23,52,38,23,30.27,30.09,7,1,7,0.00
2013-12-31,69,53,40,30,24,19,47,33,17,30.24,30.00,8,1,8,0.00
2014-1-1,69,53,41,28,24,19,43,33,20,30.18,29.97,10,1,10,0.00
2014-1-2,69,50,0,27,23,19,44,35,17,30.18,29.97,7,1,7,0.00